createdAt,value
2023-04-11T00:02:14.497Z,11.20
2023-04-11T00:04:43.457Z,11.90
2023-04-11T00:07:11.876Z,11.20
2023-04-11T00:09:41.324Z,11.60
2023-04-11T00:12:10.097Z,11.30
2023-04-11T00:14:38.309Z,11.00
2023-04-11T00:17:09.660Z,10.80
2023-04-11T00:19:38.746Z,11.20
2023-04-11T00:22:11.552Z,10.70
2023-04-11T00:24:40.686Z,12.60
2023-04-11T00:27:08.892Z,12.20
2023-04-11T00:29:38.042Z,11.30
2023-04-11T00:32:06.675Z,10.70
2023-04-11T00:34:34.808Z,11.90
2023-04-11T00:37:03.158Z,11.60
2023-04-11T00:39:34.245Z,11.10
2023-04-11T00:42:06.855Z,11.60
2023-04-11T00:44:36.218Z,11.20
2023-04-11T00:47:06.720Z,11.30
2023-04-11T00:49:34.940Z,11.10
2023-04-11T00:52:03.551Z,12.30
2023-04-11T00:54:31.747Z,11.80
2023-04-11T00:57:03.998Z,10.90
2023-04-11T00:59:32.525Z,11.30
2023-04-11T01:02:01.663Z,10.70
2023-04-11T01:04:31.216Z,11.00
2023-04-11T01:07:04.366Z,11.00
2023-04-11T01:09:33.393Z,10.30
2023-04-11T01:12:02.996Z,10.90
2023-04-11T01:14:31.618Z,11.20
2023-04-11T01:17:02.289Z,10.70
2023-04-11T01:19:31.086Z,10.80
2023-04-11T01:22:01.200Z,10.80
2023-04-11T01:24:29.901Z,11.40
2023-04-11T01:27:00.190Z,11.30
2023-04-11T01:29:28.539Z,11.30
2023-04-11T01:31:56.632Z,11.10
2023-04-11T01:34:25.210Z,10.60
2023-04-11T01:36:53.360Z,11.60
2023-04-11T01:39:21.485Z,11.70
2023-04-11T01:41:49.864Z,10.70
2023-04-11T01:44:18.528Z,10.20
2023-04-11T01:46:49.071Z,10.90
2023-04-11T01:49:19.017Z,10.70
2023-04-11T01:51:49.518Z,10.90
2023-04-11T01:54:17.668Z,12.40
2023-04-11T01:56:45.961Z,10.60
2023-04-11T01:59:14.249Z,10.80
2023-04-11T02:01:43.158Z,10.30
2023-04-11T02:04:11.619Z,11.30
2023-04-11T02:06:42.593Z,11.00
2023-04-11T02:09:10.679Z,11.80
2023-04-11T02:11:39.235Z,10.90
2023-04-11T02:14:09.920Z,10.50
2023-04-11T02:16:57.037Z,10.50
2023-04-11T02:19:26.237Z,11.20
2023-04-11T02:21:54.920Z,11.00
2023-04-11T02:24:23.522Z,11.20
2023-04-11T02:26:52.106Z,12.10
2023-04-11T02:29:20.293Z,15.10
2023-04-11T02:31:51.341Z,14.60
2023-04-11T02:34:19.742Z,17.60
2023-04-11T02:36:51.307Z,17.10
2023-04-11T02:39:21.800Z,15.40
2023-04-11T02:41:50.111Z,15.00
2023-04-11T02:44:19.868Z,14.70
2023-04-11T02:46:48.241Z,14.50
2023-04-11T02:49:17.029Z,14.90
2023-04-11T02:54:18.540Z,13.70
2023-04-11T02:56:48.236Z,13.90
2023-04-11T02:59:16.644Z,14.20
2023-04-11T03:01:45.312Z,13.60
2023-04-11T03:04:13.616Z,13.40
2023-04-11T03:06:52.155Z,12.50
2023-04-11T03:09:21.218Z,24.40
2023-04-11T03:11:50.348Z,28.50
2023-04-11T03:14:19.262Z,24.20
2023-04-11T03:16:49.027Z,20.10
2023-04-11T03:19:19.017Z,15.90
2023-04-11T03:21:47.206Z,14.50
2023-04-11T03:24:17.922Z,14.50
2023-04-11T03:26:46.176Z,12.90
2023-04-11T03:29:16.679Z,13.20
2023-04-11T03:31:59.202Z,11.20
2023-04-11T03:34:28.306Z,10.60
2023-04-11T03:36:58.813Z,10.80
2023-04-11T03:39:27.615Z,11.30
2023-04-11T03:41:58.630Z,11.30
2023-04-11T03:44:28.028Z,12.30
2023-04-11T03:46:57.122Z,14.30
2023-04-11T03:49:27.590Z,15.40
2023-04-11T03:51:57.019Z,18.90
2023-04-11T03:54:25.532Z,20.30
2023-04-11T03:56:53.883Z,20.00
2023-04-11T03:59:30.028Z,19.30
2023-04-11T04:02:01.974Z,19.90
2023-04-11T04:04:33.476Z,18.40
2023-04-11T04:07:27.282Z,20.80
2023-04-11T04:10:00.682Z,19.90
2023-04-11T04:12:29.011Z,18.50
2023-04-11T04:15:29.462Z,16.10
2023-04-11T04:17:59.894Z,15.20
2023-04-11T04:20:42.698Z,15.60
2023-04-11T04:23:14.324Z,15.50
2023-04-11T04:25:54.324Z,17.90
2023-04-11T04:28:26.211Z,16.60
2023-04-11T04:30:58.183Z,16.50
2023-04-11T04:33:33.230Z,19.00
2023-04-11T04:36:05.187Z,15.80
2023-04-11T04:38:38.611Z,13.20
2023-04-11T04:41:15.244Z,13.40
2023-04-11T04:43:46.054Z,12.90
2023-04-11T04:46:31.970Z,14.30
2023-04-11T04:49:02.469Z,15.50
2023-04-11T04:51:31.075Z,13.60
2023-04-11T04:54:06.250Z,13.40
2023-04-11T04:56:36.034Z,9.90
2023-04-11T04:59:05.042Z,11.30
2023-04-11T05:01:35.350Z,10.10
2023-04-11T05:04:05.987Z,10.00
2023-04-11T05:06:48.092Z,9.20
2023-04-11T05:09:16.998Z,8.80
2023-04-11T05:11:46.916Z,8.50
2023-04-11T05:14:16.615Z,6.70
2023-04-11T05:16:47.764Z,5.80
2023-04-11T05:19:24.683Z,6.50
2023-04-11T05:21:54.379Z,6.70
2023-04-11T05:24:27.719Z,7.60
2023-04-11T05:26:56.649Z,5.30
2023-04-11T05:29:25.135Z,4.50
2023-04-11T05:31:58.749Z,4.70
2023-04-11T05:34:30.625Z,5.10
2023-04-11T05:36:58.948Z,3.70
2023-04-11T05:39:30.719Z,4.30
2023-04-11T05:41:59.055Z,3.30
2023-04-11T05:44:28.172Z,4.10
2023-04-11T05:49:33.391Z,4.10
2023-04-11T05:52:02.318Z,5.60
2023-04-11T05:54:35.035Z,5.50
2023-04-11T05:57:03.674Z,4.90
2023-04-11T05:59:33.188Z,5.30
2023-04-11T06:02:06.424Z,5.60
2023-04-11T06:04:35.113Z,5.20
2023-04-11T06:07:04.661Z,7.20
2023-04-11T06:09:34.206Z,5.10
2023-04-11T06:12:05.363Z,5.00
2023-04-11T06:14:34.822Z,5.10
2023-04-11T06:17:04.102Z,5.10
2023-04-11T06:19:32.844Z,4.60
2023-04-11T06:22:02.253Z,4.70
2023-04-11T06:24:40.962Z,4.30
2023-04-11T06:29:43.838Z,4.00
2023-04-11T06:32:12.327Z,4.90
2023-04-11T06:34:45.648Z,4.40
2023-04-11T06:37:15.267Z,5.40
2023-04-11T06:39:46.198Z,4.30
2023-04-11T06:42:18.408Z,4.30
2023-04-11T06:44:47.464Z,4.20
2023-04-11T06:47:16.121Z,4.10
2023-04-11T06:49:46.228Z,4.30
2023-04-11T06:52:15.818Z,7.60
2023-04-11T06:54:44.047Z,6.50
2023-04-11T06:57:14.170Z,5.00
2023-04-11T06:59:51.252Z,3.70
2023-04-11T07:02:22.073Z,4.00
2023-04-11T07:04:52.554Z,3.90
2023-04-11T07:07:27.685Z,5.80
2023-04-11T07:09:56.232Z,7.00
2023-04-11T07:12:24.668Z,7.20
2023-04-11T07:14:54.651Z,10.90
2023-04-11T07:17:24.770Z,6.30
2023-04-11T07:19:53.404Z,5.50
2023-04-11T07:22:21.918Z,6.20
2023-04-11T07:24:53.029Z,5.10
2023-04-11T07:27:23.508Z,5.00
2023-04-11T07:29:52.543Z,6.90
2023-04-11T07:32:20.951Z,6.20
2023-04-11T07:34:49.023Z,6.50
2023-04-11T07:37:18.266Z,5.80
2023-04-11T07:39:46.671Z,9.90
2023-04-11T07:42:17.524Z,10.20
2023-04-11T07:44:46.136Z,8.90
2023-04-11T07:47:19.124Z,15.80
2023-04-11T07:49:48.266Z,18.70
2023-04-11T07:52:16.598Z,20.50
2023-04-11T07:54:46.661Z,19.40
2023-04-11T07:57:15.090Z,9.70
2023-04-11T07:59:46.432Z,11.00
2023-04-11T08:02:17.438Z,9.30
2023-04-11T08:04:45.918Z,8.70
2023-04-11T08:07:19.272Z,4.00
2023-04-11T08:09:50.473Z,4.80
2023-04-11T08:12:19.016Z,4.30
2023-04-11T08:14:48.285Z,4.20
2023-04-11T08:17:27.133Z,4.70
2023-04-11T08:19:57.901Z,4.20
2023-04-11T08:22:26.747Z,6.20
2023-04-11T08:24:54.922Z,4.10
2023-04-11T08:27:23.333Z,3.10
2023-04-11T08:29:51.678Z,3.80
2023-04-11T08:32:20.253Z,3.40
2023-04-11T08:34:48.557Z,3.60
2023-04-11T08:37:16.787Z,4.30
2023-04-11T08:39:47.638Z,5.00
2023-04-11T08:42:32.340Z,4.80
2023-04-11T08:45:02.605Z,3.40
2023-04-11T08:47:30.997Z,3.90
2023-04-11T08:49:59.499Z,4.10
2023-04-11T08:52:27.634Z,4.10
2023-04-11T08:54:56.013Z,3.40
2023-04-11T08:57:28.744Z,3.60
2023-04-11T09:00:08.146Z,4.10
2023-04-11T09:03:00.905Z,3.50
2023-04-11T09:05:34.501Z,4.30
2023-04-11T09:08:06.928Z,4.70
2023-04-11T09:10:35.879Z,4.40
2023-04-11T09:13:24.118Z,4.10
2023-04-11T09:16:09.542Z,4.40
2023-04-11T09:18:42.004Z,4.30
2023-04-11T09:21:14.487Z,4.30
2023-04-11T09:23:42.754Z,4.40
2023-04-11T09:26:12.672Z,6.80
2023-04-11T09:28:43.059Z,3.80
2023-04-11T09:31:14.352Z,4.10
2023-04-11T09:33:56.050Z,3.40
2023-04-11T09:36:25.300Z,4.40
2023-04-11T09:38:54.136Z,4.40
2023-04-11T09:41:34.756Z,4.20
2023-04-11T09:44:02.921Z,4.30
2023-04-11T09:46:31.688Z,4.80
2023-04-11T09:49:01.976Z,5.00
2023-04-11T09:51:35.598Z,4.10
2023-04-11T09:54:05.409Z,5.40
2023-04-11T09:56:34.777Z,5.10
2023-04-11T09:59:05.845Z,5.40
2023-04-11T10:01:35.932Z,5.60
2023-04-11T10:04:05.876Z,7.00
2023-04-11T10:06:45.475Z,6.30
2023-04-11T10:09:14.270Z,5.40
2023-04-11T10:11:44.651Z,4.50
2023-04-11T10:14:39.568Z,5.30
2023-04-11T10:17:22.124Z,5.10
2023-04-11T10:19:57.925Z,6.40
2023-04-11T10:22:41.491Z,5.80
2023-04-11T10:25:22.346Z,5.60
2023-04-11T10:28:04.756Z,5.70
2023-04-11T10:30:40.463Z,6.10
2023-04-11T10:33:12.682Z,5.60
2023-04-11T10:35:58.038Z,6.00
2023-04-11T10:38:46.218Z,5.50
2023-04-11T10:41:35.769Z,4.70
2023-04-11T10:44:18.589Z,4.90
2023-04-11T10:46:51.657Z,4.80
2023-04-11T10:52:19.015Z,5.80
2023-04-11T10:54:51.981Z,5.30
2023-04-11T10:57:27.366Z,5.60
2023-04-11T10:59:58.776Z,4.90
2023-04-11T11:02:36.585Z,4.70
2023-04-11T11:05:16.741Z,5.30
2023-04-11T11:07:48.451Z,5.60
2023-04-11T11:10:17.901Z,5.20
2023-04-11T11:12:54.161Z,4.90
2023-04-11T11:15:22.255Z,4.70
2023-04-11T11:17:51.585Z,4.80
2023-04-11T11:20:20.237Z,4.80
2023-04-11T11:22:59.194Z,5.50
2023-04-11T11:25:27.553Z,6.90
2023-04-11T11:28:04.656Z,5.10
2023-04-11T11:30:34.021Z,5.30
2023-04-11T11:33:19.877Z,5.50
2023-04-11T11:35:57.189Z,4.60
2023-04-11T11:38:26.880Z,4.90
2023-04-11T11:40:55.304Z,4.40
2023-04-11T11:43:27.549Z,3.80
2023-04-11T11:46:15.002Z,4.60
2023-04-11T11:48:57.561Z,4.60
2023-04-11T11:51:26.768Z,4.30
2023-04-11T11:54:05.742Z,4.90
2023-04-11T11:56:33.944Z,5.20
2023-04-11T11:59:04.896Z,5.30
2023-04-11T12:01:39.063Z,5.30
2023-04-11T12:04:07.838Z,4.70
2023-04-11T12:06:37.678Z,5.00
2023-04-11T12:09:12.364Z,5.10
2023-04-11T12:11:43.166Z,5.00
2023-04-11T12:14:13.092Z,5.40
2023-04-11T12:16:41.405Z,5.50
2023-04-11T12:19:10.538Z,5.00
2023-04-11T12:21:39.123Z,4.90
2023-04-11T12:24:14.684Z,5.00
2023-04-11T12:27:05.656Z,5.10
2023-04-11T12:29:37.232Z,5.00
2023-04-11T12:32:13.265Z,5.40
2023-04-11T12:34:43.581Z,4.70
2023-04-11T12:37:11.634Z,4.80
2023-04-11T12:39:41.649Z,6.20
2023-04-11T12:42:11.579Z,5.90
2023-04-11T12:44:46.949Z,4.80
2023-04-11T12:47:15.267Z,5.30
2023-04-11T12:49:44.991Z,4.70
2023-04-11T12:52:14.108Z,5.00
2023-04-11T12:54:42.728Z,4.90
2023-04-11T12:57:17.091Z,4.60
2023-04-11T12:59:46.861Z,6.80
2023-04-11T13:02:14.976Z,5.60
2023-04-11T13:04:43.470Z,4.90
2023-04-11T13:07:12.619Z,3.90
2023-04-11T13:09:40.994Z,5.90
2023-04-11T13:12:11.053Z,5.70
2023-04-11T13:14:43.083Z,4.50
2023-04-11T13:17:12.110Z,4.30
2023-04-11T13:19:40.842Z,5.30
2023-04-11T13:22:09.056Z,5.00
2023-04-11T13:24:38.531Z,5.00
2023-04-11T13:27:06.630Z,4.10
2023-04-11T13:29:36.068Z,5.40
2023-04-11T13:32:04.471Z,4.40
2023-04-11T13:34:34.202Z,5.00
2023-04-11T13:37:02.680Z,4.00
2023-04-11T13:39:31.264Z,4.20
2023-04-11T13:42:00.021Z,3.90
2023-04-11T13:44:28.720Z,3.80
2023-04-11T13:46:56.852Z,3.90
2023-04-11T13:49:24.936Z,4.30
2023-04-11T13:51:53.293Z,4.30
2023-04-11T13:54:27.707Z,4.90
2023-04-11T13:56:56.796Z,4.30
2023-04-11T13:59:24.910Z,4.30
2023-04-11T14:01:53.705Z,4.10
2023-04-11T14:04:22.844Z,4.40
2023-04-11T14:06:53.968Z,4.00
2023-04-11T14:09:22.537Z,4.50
2023-04-11T14:11:54.993Z,4.00
2023-04-11T14:14:24.468Z,4.20
2023-04-11T14:16:53.649Z,4.30
2023-04-11T14:19:24.791Z,4.30
2023-04-11T14:21:54.279Z,4.20
2023-04-11T14:24:22.726Z,4.50
2023-04-11T14:26:54.063Z,3.90
2023-04-11T14:29:23.573Z,3.70
2023-04-11T14:31:57.634Z,4.80
2023-04-11T14:34:28.932Z,4.50
2023-04-11T14:36:58.352Z,5.10
2023-04-11T14:39:40.101Z,4.60
2023-04-11T14:42:09.980Z,4.60
2023-04-11T14:44:39.455Z,4.50
2023-04-11T14:47:07.966Z,4.30
2023-04-11T14:49:36.308Z,4.30
2023-04-11T14:52:07.464Z,4.70
2023-04-11T14:54:37.061Z,4.70
2023-04-11T14:57:05.433Z,5.00
2023-04-11T14:59:35.304Z,5.60
2023-04-11T15:02:05.375Z,5.50
2023-04-11T15:04:35.212Z,9.40
2023-04-11T15:07:06.196Z,5.80
2023-04-11T15:09:42.924Z,4.70
2023-04-11T15:12:13.447Z,5.00
2023-04-11T15:14:47.298Z,5.40
2023-04-11T15:17:17.791Z,4.60
2023-04-11T15:19:46.506Z,5.30
2023-04-11T15:22:19.961Z,6.00
2023-04-11T15:24:50.965Z,7.40
2023-04-11T15:27:22.677Z,5.80
2023-04-11T15:33:18.718Z,6.50
2023-04-11T15:35:50.365Z,6.90
2023-04-11T15:38:19.116Z,6.90
2023-04-11T15:40:51.486Z,6.10
2023-04-11T15:43:21.980Z,6.80
2023-04-11T15:45:52.659Z,6.70
2023-04-11T15:48:24.194Z,6.70
2023-04-11T15:50:53.019Z,7.20
2023-04-11T15:53:21.765Z,6.60
2023-04-11T15:55:50.659Z,5.90
2023-04-11T15:58:19.647Z,6.60
2023-04-11T16:00:55.002Z,7.20
2023-04-11T16:03:32.447Z,6.40
2023-04-11T16:06:01.848Z,5.20
2023-04-11T16:08:31.187Z,9.30
2023-04-11T16:11:04.042Z,6.00
2023-04-11T16:16:04.198Z,5.80
2023-04-11T16:18:38.544Z,5.90
2023-04-11T16:21:15.434Z,6.30
2023-04-11T16:23:50.848Z,6.10
2023-04-11T16:26:19.026Z,13.90
2023-04-11T16:28:48.830Z,11.70
2023-04-11T16:31:22.044Z,7.10
2023-04-11T16:33:53.626Z,6.90
2023-04-11T16:36:22.553Z,5.90
2023-04-11T16:38:51.083Z,6.90
2023-04-11T16:41:19.227Z,7.10
2023-04-11T16:43:49.137Z,6.60
2023-04-11T16:46:19.076Z,9.30
2023-04-11T16:48:47.678Z,7.20
2023-04-11T16:51:18.574Z,7.60
2023-04-11T16:53:47.719Z,7.10
2023-04-11T16:56:20.155Z,6.60
2023-04-11T16:58:48.602Z,8.00
2023-04-11T17:01:17.244Z,8.50
2023-04-11T17:03:47.221Z,8.70
2023-04-11T17:06:16.782Z,8.50
2023-04-11T17:08:45.596Z,10.30
2023-04-11T17:11:13.792Z,16.90
2023-04-11T17:13:45.314Z,20.80
2023-04-11T17:16:13.807Z,34.30
2023-04-11T17:18:43.464Z,16.90
2023-04-11T17:21:18.850Z,21.60
2023-04-11T17:23:48.674Z,12.30
2023-04-11T17:26:21.148Z,8.60
2023-04-11T17:28:53.839Z,6.20
2023-04-11T17:31:22.417Z,7.30
2023-04-11T17:33:52.725Z,9.60
2023-04-11T17:36:21.684Z,7.40
2023-04-11T17:38:54.434Z,7.30
2023-04-11T17:41:23.098Z,7.70
2023-04-11T17:43:51.338Z,7.60
2023-04-11T17:46:20.606Z,6.30
2023-04-11T17:48:49.315Z,5.10
2023-04-11T17:51:17.592Z,5.00
2023-04-11T17:53:46.478Z,5.10
2023-04-11T17:56:15.861Z,6.00
2023-04-11T17:58:45.420Z,5.30
2023-04-11T18:01:14.409Z,5.40
2023-04-11T18:03:44.237Z,4.50
2023-04-11T18:07:18.209Z,4.70
2023-04-11T18:09:47.525Z,4.50
2023-04-11T18:12:15.875Z,5.10
2023-04-11T18:14:44.060Z,3.80
2023-04-11T18:17:12.234Z,3.90
2023-04-11T18:19:40.912Z,4.00
2023-04-11T18:22:11.649Z,4.60
2023-04-11T18:24:41.748Z,4.70
2023-04-11T18:27:10.690Z,4.80
2023-04-11T18:29:39.682Z,3.50
2023-04-11T18:32:08.031Z,4.00
2023-04-11T18:34:36.379Z,4.20
2023-04-11T18:37:04.787Z,5.00
2023-04-11T18:39:33.486Z,4.90
2023-04-11T18:42:03.897Z,4.30
2023-04-11T18:44:32.499Z,3.70
2023-04-11T18:47:05.467Z,3.50
2023-04-11T18:49:39.503Z,4.30
2023-04-11T18:52:08.347Z,3.80
2023-04-11T18:54:42.482Z,3.50
2023-04-11T18:57:12.139Z,3.40
2023-04-11T18:59:43.639Z,3.50
2023-04-11T19:02:17.346Z,3.70
2023-04-11T19:04:49.505Z,4.30
2023-04-11T19:07:18.031Z,4.40
2023-04-11T19:09:49.602Z,4.00
2023-04-11T19:12:19.394Z,4.30
2023-04-11T19:14:48.149Z,4.20
2023-04-11T19:17:16.602Z,5.40
2023-04-11T19:19:44.658Z,5.20
2023-04-11T19:22:12.908Z,5.20
2023-04-11T19:24:41.734Z,5.10
2023-04-11T19:27:10.095Z,4.70
2023-04-11T19:29:38.280Z,5.20
2023-04-11T19:32:06.470Z,4.90
2023-04-11T19:34:35.163Z,5.30
2023-04-11T19:37:03.440Z,5.40
2023-04-11T19:39:38.113Z,5.00
2023-04-11T19:42:08.803Z,4.10
2023-04-11T19:44:38.661Z,4.70
2023-04-11T19:47:06.990Z,5.50
2023-04-11T19:49:35.812Z,4.80
